sensor_id;sensor_type;location;lat;lon;timestamp;temperature;humidity
4564;DHT22;2294;51.818;8.484;2023-03-21T00:02:26;10.10;99.90
4564;DHT22;2294;51.818;8.484;2023-03-21T00:04:53;10.20;99.90
4564;DHT22;2294;51.818;8.484;2023-03-21T00:07:20;10.20;99.90
4564;DHT22;2294;51.818;8.484;2023-03-21T00:09:48;10.10;99.90
4564;DHT22;2294;51.818;8.484;2023-03-21T00:12:15;10.10;99.90
4564;DHT22;2294;51.818;8.484;2023-03-21T00:14:45;10.10;99.90
4564;DHT22;2294;51.818;8.484;2023-03-21T00:17:12;10.20;99.90
4564;DHT22;2294;51.818;8.484;2023-03-21T00:19:40;10.10;99.90
4564;DHT22;2294;51.818;8.484;2023-03-21T00:22:09;10.10;99.90
4564;DHT22;2294;51.818;8.484;2023-03-21T00:24:36;10.10;99.90
4564;DHT22;2294;51.818;8.484;2023-03-21T00:27:05;10.10;99.90
4564;DHT22;2294;51.818;8.484;2023-03-21T00:29:32;10.10;99.90
4564;DHT22;2294;51.818;8.484;2023-03-21T00:31:59;10.10;99.90
4564;DHT22;2294;51.818;8.484;2023-03-21T00:34:26;10.20;99.90
4564;DHT22;2294;51.818;8.484;2023-03-21T00:36:53;10.10;99.90
4564;DHT22;2294;51.818;8.484;2023-03-21T00:39:20;10.10;99.90
4564;DHT22;2294;51.818;8.484;2023-03-21T00:41:47;10.10;99.90
4564;DHT22;2294;51.818;8.484;2023-03-21T00:44:15;10.20;99.90
4564;DHT22;2294;51.818;8.484;2023-03-21T00:46:42;10.20;99.90
4564;DHT22;2294;51.818;8.484;2023-03-21T00:49:09;10.20;99.90
4564;DHT22;2294;51.818;8.484;2023-03-21T00:51:36;10.20;99.90
4564;DHT22;2294;51.818;8.484;2023-03-21T00:54:03;10.30;99.90
4564;DHT22;2294;51.818;8.484;2023-03-21T00:56:30;10.30;99.90
4564;DHT22;2294;51.818;8.484;2023-03-21T00:58:57;10.40;99.90
4564;DHT22;2294;51.818;8.484;2023-03-21T01:01:26;10.40;99.90
4564;DHT22;2294;51.818;8.484;2023-03-21T01:03:57;10.40;99.90
4564;DHT22;2294;51.818;8.484;2023-03-21T01:06:29;10.50;99.90
4564;DHT22;2294;51.818;8.484;2023-03-21T01:08:56;10.50;99.90
4564;DHT22;2294;51.818;8.484;2023-03-21T01:11:26;10.50;99.90
4564;DHT22;2294;51.818;8.484;2023-03-21T01:13:53;10.60;99.90
4564;DHT22;2294;51.818;8.484;2023-03-21T01:16:20;10.60;99.90
4564;DHT22;2294;51.818;8.484;2023-03-21T01:18:48;10.60;99.90
4564;DHT22;2294;51.818;8.484;2023-03-21T01:21:16;10.60;99.90
4564;DHT22;2294;51.818;8.484;2023-03-21T01:23:43;10.70;99.90
4564;DHT22;2294;51.818;8.484;2023-03-21T01:26:11;10.70;99.90
4564;DHT22;2294;51.818;8.484;2023-03-21T01:28:40;10.70;99.90
4564;DHT22;2294;51.818;8.484;2023-03-21T01:31:09;10.70;99.90
4564;DHT22;2294;51.818;8.484;2023-03-21T01:33:36;10.70;99.90
4564;DHT22;2294;51.818;8.484;2023-03-21T01:36:06;10.80;99.90
4564;DHT22;2294;51.818;8.484;2023-03-21T01:38:33;10.70;99.90
4564;DHT22;2294;51.818;8.484;2023-03-21T01:41:01;10.80;99.90
4564;DHT22;2294;51.818;8.484;2023-03-21T01:43:30;10.80;99.90
4564;DHT22;2294;51.818;8.484;2023-03-21T01:46:38;10.80;99.90
4564;DHT22;2294;51.818;8.484;2023-03-21T01:49:10;10.80;99.90
4564;DHT22;2294;51.818;8.484;2023-03-21T01:51:41;10.80;99.90
4564;DHT22;2294;51.818;8.484;2023-03-21T01:54:14;10.90;99.90
4564;DHT22;2294;51.818;8.484;2023-03-21T01:56:44;10.80;99.90
4564;DHT22;2294;51.818;8.484;2023-03-21T01:59:17;10.80;99.90
4564;DHT22;2294;51.818;8.484;2023-03-21T02:01:47;10.80;99.90
4564;DHT22;2294;51.818;8.484;2023-03-21T02:04:16;10.80;99.90
4564;DHT22;2294;51.818;8.484;2023-03-21T02:06:52;10.80;99.90
4564;DHT22;2294;51.818;8.484;2023-03-21T02:09:24;10.70;99.90
4564;DHT22;2294;51.818;8.484;2023-03-21T02:11:53;10.80;99.90
4564;DHT22;2294;51.818;8.484;2023-03-21T02:14:20;10.80;99.90
4564;DHT22;2294;51.818;8.484;2023-03-21T02:16:53;10.80;99.90
4564;DHT22;2294;51.818;8.484;2023-03-21T02:19:46;10.70;99.90
4564;DHT22;2294;51.818;8.484;2023-03-21T02:28:38;10.70;99.90
4564;DHT22;2294;51.818;8.484;2023-03-21T02:31:20;10.70;99.90
4564;DHT22;2294;51.818;8.484;2023-03-21T02:37:01;10.60;99.90
4564;DHT22;2294;51.818;8.484;2023-03-21T02:39:40;10.60;99.90
4564;DHT22;2294;51.818;8.484;2023-03-21T02:42:12;10.60;99.90
4564;DHT22;2294;51.818;8.484;2023-03-21T02:44:43;10.60;99.90
4564;DHT22;2294;51.818;8.484;2023-03-21T02:47:14;10.60;99.90
4564;DHT22;2294;51.818;8.484;2023-03-21T02:49:46;10.60;99.90
4564;DHT22;2294;51.818;8.484;2023-03-21T02:52:20;10.60;99.90
4564;DHT22;2294;51.818;8.484;2023-03-21T02:54:48;10.60;99.90
4564;DHT22;2294;51.818;8.484;2023-03-21T02:57:18;10.60;99.90
4564;DHT22;2294;51.818;8.484;2023-03-21T02:59:46;10.60;99.90
4564;DHT22;2294;51.818;8.484;2023-03-21T03:02:14;10.60;99.90
4564;DHT22;2294;51.818;8.484;2023-03-21T03:04:42;10.60;99.90
4564;DHT22;2294;51.818;8.484;2023-03-21T03:07:20;10.50;99.90
4564;DHT22;2294;51.818;8.484;2023-03-21T03:10:02;10.60;99.90
4564;DHT22;2294;51.818;8.484;2023-03-21T03:12:36;10.50;99.90
4564;DHT22;2294;51.818;8.484;2023-03-21T03:15:14;10.50;99.90
4564;DHT22;2294;51.818;8.484;2023-03-21T03:17:49;10.50;99.90
4564;DHT22;2294;51.818;8.484;2023-03-21T03:20:24;10.50;99.90
4564;DHT22;2294;51.818;8.484;2023-03-21T03:23:03;10.50;99.90
4564;DHT22;2294;51.818;8.484;2023-03-21T03:25:36;10.50;99.90
4564;DHT22;2294;51.818;8.484;2023-03-21T03:28:05;10.50;99.90
4564;DHT22;2294;51.818;8.484;2023-03-21T03:30:35;10.40;99.90
4564;DHT22;2294;51.818;8.484;2023-03-21T03:33:05;10.50;99.90
4564;DHT22;2294;51.818;8.484;2023-03-21T03:35:34;10.50;99.90
4564;DHT22;2294;51.818;8.484;2023-03-21T03:38:04;10.50;99.90
4564;DHT22;2294;51.818;8.484;2023-03-21T03:40:37;10.50;99.90
4564;DHT22;2294;51.818;8.484;2023-03-21T03:43:09;10.50;99.90
4564;DHT22;2294;51.818;8.484;2023-03-21T03:45:42;10.50;99.90
4564;DHT22;2294;51.818;8.484;2023-03-21T03:48:14;10.50;99.90
4564;DHT22;2294;51.818;8.484;2023-03-21T03:50:46;10.50;99.90
4564;DHT22;2294;51.818;8.484;2023-03-21T03:53:19;10.50;99.90
4564;DHT22;2294;51.818;8.484;2023-03-21T03:55:48;10.40;99.90
4564;DHT22;2294;51.818;8.484;2023-03-21T03:58:17;10.30;99.90
4564;DHT22;2294;51.818;8.484;2023-03-21T04:00:45;10.30;99.90
4564;DHT22;2294;51.818;8.484;2023-03-21T04:03:12;10.40;99.90
4564;DHT22;2294;51.818;8.484;2023-03-21T04:05:39;10.40;99.90
4564;DHT22;2294;51.818;8.484;2023-03-21T04:08:06;10.50;99.90
4564;DHT22;2294;51.818;8.484;2023-03-21T04:10:35;10.40;99.90
4564;DHT22;2294;51.818;8.484;2023-03-21T04:13:01;10.40;99.90
4564;DHT22;2294;51.818;8.484;2023-03-21T04:15:28;10.40;99.90
4564;DHT22;2294;51.818;8.484;2023-03-21T04:17:55;10.50;99.90
4564;DHT22;2294;51.818;8.484;2023-03-21T04:20:22;10.40;99.90
4564;DHT22;2294;51.818;8.484;2023-03-21T04:22:49;10.50;99.90
4564;DHT22;2294;51.818;8.484;2023-03-21T04:25:17;10.40;99.90
4564;DHT22;2294;51.818;8.484;2023-03-21T04:27:45;10.40;99.90
4564;DHT22;2294;51.818;8.484;2023-03-21T04:30:13;10.40;99.90
4564;DHT22;2294;51.818;8.484;2023-03-21T04:32:41;10.30;99.90
4564;DHT22;2294;51.818;8.484;2023-03-21T04:35:08;10.40;99.90
4564;DHT22;2294;51.818;8.484;2023-03-21T04:37:36;10.40;99.90
4564;DHT22;2294;51.818;8.484;2023-03-21T04:40:04;10.30;99.90
4564;DHT22;2294;51.818;8.484;2023-03-21T04:42:32;10.30;99.90
4564;DHT22;2294;51.818;8.484;2023-03-21T04:45:01;10.40;99.90
4564;DHT22;2294;51.818;8.484;2023-03-21T04:47:28;10.40;99.90
4564;DHT22;2294;51.818;8.484;2023-03-21T04:49:55;10.40;99.90
4564;DHT22;2294;51.818;8.484;2023-03-21T04:52:22;10.40;99.90
4564;DHT22;2294;51.818;8.484;2023-03-21T04:54:49;10.30;99.90
4564;DHT22;2294;51.818;8.484;2023-03-21T04:57:16;10.40;99.90
4564;DHT22;2294;51.818;8.484;2023-03-21T04:59:43;10.40;99.90
4564;DHT22;2294;51.818;8.484;2023-03-21T05:02:12;10.40;99.90
4564;DHT22;2294;51.818;8.484;2023-03-21T05:04:39;10.40;99.90
4564;DHT22;2294;51.818;8.484;2023-03-21T05:07:06;10.40;99.90
4564;DHT22;2294;51.818;8.484;2023-03-21T05:09:33;10.40;99.90
4564;DHT22;2294;51.818;8.484;2023-03-21T05:12:00;10.40;99.90
4564;DHT22;2294;51.818;8.484;2023-03-21T05:14:27;10.40;99.90
4564;DHT22;2294;51.818;8.484;2023-03-21T05:16:54;10.40;99.90
4564;DHT22;2294;51.818;8.484;2023-03-21T05:19:25;10.40;99.90
4564;DHT22;2294;51.818;8.484;2023-03-21T05:21:59;10.40;99.90
4564;DHT22;2294;51.818;8.484;2023-03-21T05:24:30;10.40;99.90
4564;DHT22;2294;51.818;8.484;2023-03-21T05:26:57;10.40;99.90
4564;DHT22;2294;51.818;8.484;2023-03-21T05:29:28;10.40;99.90
4564;DHT22;2294;51.818;8.484;2023-03-21T05:31:56;10.40;99.90
4564;DHT22;2294;51.818;8.484;2023-03-21T05:34:24;10.40;99.90
4564;DHT22;2294;51.818;8.484;2023-03-21T05:36:52;10.50;99.90
4564;DHT22;2294;51.818;8.484;2023-03-21T05:39:19;10.50;99.90
4564;DHT22;2294;51.818;8.484;2023-03-21T05:41:47;10.50;99.90
4564;DHT22;2294;51.818;8.484;2023-03-21T05:44:13;10.50;99.90
4564;DHT22;2294;51.818;8.484;2023-03-21T05:46:40;10.50;99.90
4564;DHT22;2294;51.818;8.484;2023-03-21T05:49:09;10.50;99.90
4564;DHT22;2294;51.818;8.484;2023-03-21T05:51:38;10.60;99.90
4564;DHT22;2294;51.818;8.484;2023-03-21T05:54:05;10.60;99.90
4564;DHT22;2294;51.818;8.484;2023-03-21T05:56:32;10.60;99.90
4564;DHT22;2294;51.818;8.484;2023-03-21T05:58:59;10.60;99.90
4564;DHT22;2294;51.818;8.484;2023-03-21T06:01:25;10.60;99.90
4564;DHT22;2294;51.818;8.484;2023-03-21T06:03:52;10.70;99.90
4564;DHT22;2294;51.818;8.484;2023-03-21T06:06:19;10.70;99.90
4564;DHT22;2294;51.818;8.484;2023-03-21T06:08:47;10.70;99.90
4564;DHT22;2294;51.818;8.484;2023-03-21T06:11:21;10.70;99.90
4564;DHT22;2294;51.818;8.484;2023-03-21T06:13:48;10.70;99.90
4564;DHT22;2294;51.818;8.484;2023-03-21T06:16:15;10.80;99.90
4564;DHT22;2294;51.818;8.484;2023-03-21T06:18:42;10.80;99.90
4564;DHT22;2294;51.818;8.484;2023-03-21T06:21:09;10.80;99.90
4564;DHT22;2294;51.818;8.484;2023-03-21T06:23:36;10.80;99.90
4564;DHT22;2294;51.818;8.484;2023-03-21T06:26:06;10.80;99.90
4564;DHT22;2294;51.818;8.484;2023-03-21T06:28:33;10.80;99.90
4564;DHT22;2294;51.818;8.484;2023-03-21T06:31:00;10.80;99.90
4564;DHT22;2294;51.818;8.484;2023-03-21T06:33:27;10.80;99.90
4564;DHT22;2294;51.818;8.484;2023-03-21T06:35:57;10.80;99.90
4564;DHT22;2294;51.818;8.484;2023-03-21T06:38:24;10.80;99.90
4564;DHT22;2294;51.818;8.484;2023-03-21T06:40:52;10.80;99.90
4564;DHT22;2294;51.818;8.484;2023-03-21T06:43:20;10.80;99.90
4564;DHT22;2294;51.818;8.484;2023-03-21T06:45:47;10.90;99.90
4564;DHT22;2294;51.818;8.484;2023-03-21T06:48:14;10.90;99.90
4564;DHT22;2294;51.818;8.484;2023-03-21T06:50:41;10.90;99.90
4564;DHT22;2294;51.818;8.484;2023-03-21T06:53:08;10.90;99.90
4564;DHT22;2294;51.818;8.484;2023-03-21T06:55:35;10.90;99.90
4564;DHT22;2294;51.818;8.484;2023-03-21T06:58:02;10.90;99.90
4564;DHT22;2294;51.818;8.484;2023-03-21T07:00:31;11.00;99.90
4564;DHT22;2294;51.818;8.484;2023-03-21T07:02:58;11.00;99.90
4564;DHT22;2294;51.818;8.484;2023-03-21T07:05:26;11.10;99.90
4564;DHT22;2294;51.818;8.484;2023-03-21T07:07:53;11.10;99.90
4564;DHT22;2294;51.818;8.484;2023-03-21T07:10:20;11.10;99.90
4564;DHT22;2294;51.818;8.484;2023-03-21T07:12:46;11.10;99.90
4564;DHT22;2294;51.818;8.484;2023-03-21T07:15:13;11.10;99.90
4564;DHT22;2294;51.818;8.484;2023-03-21T07:17:42;11.10;99.90
4564;DHT22;2294;51.818;8.484;2023-03-21T07:20:10;11.20;99.90
4564;DHT22;2294;51.818;8.484;2023-03-21T07:22:38;11.30;99.90
4564;DHT22;2294;51.818;8.484;2023-03-21T07:25:07;11.40;99.90
4564;DHT22;2294;51.818;8.484;2023-03-21T07:27:34;11.40;99.90
4564;DHT22;2294;51.818;8.484;2023-03-21T07:30:01;11.40;99.90
4564;DHT22;2294;51.818;8.484;2023-03-21T07:32:31;11.40;99.90
4564;DHT22;2294;51.818;8.484;2023-03-21T07:34:59;11.40;99.90
4564;DHT22;2294;51.818;8.484;2023-03-21T07:37:26;11.30;99.90
4564;DHT22;2294;51.818;8.484;2023-03-21T07:39:53;11.30;99.90
4564;DHT22;2294;51.818;8.484;2023-03-21T07:42:20;11.30;99.90
4564;DHT22;2294;51.818;8.484;2023-03-21T07:44:47;11.40;99.90
4564;DHT22;2294;51.818;8.484;2023-03-21T07:47:15;11.50;99.90
4564;DHT22;2294;51.818;8.484;2023-03-21T07:49:42;11.40;99.90
4564;DHT22;2294;51.818;8.484;2023-03-21T07:52:10;11.40;99.90
4564;DHT22;2294;51.818;8.484;2023-03-21T07:54:37;11.40;99.90
4564;DHT22;2294;51.818;8.484;2023-03-21T07:57:04;11.30;99.90
4564;DHT22;2294;51.818;8.484;2023-03-21T07:59:31;11.30;99.90
4564;DHT22;2294;51.818;8.484;2023-03-21T08:01:58;11.40;99.90
4564;DHT22;2294;51.818;8.484;2023-03-21T08:04:25;11.40;99.90
4564;DHT22;2294;51.818;8.484;2023-03-21T08:06:52;11.30;99.90
4564;DHT22;2294;51.818;8.484;2023-03-21T08:09:20;11.30;99.90
4564;DHT22;2294;51.818;8.484;2023-03-21T08:11:47;11.30;99.90
4564;DHT22;2294;51.818;8.484;2023-03-21T08:14:14;11.40;99.90
4564;DHT22;2294;51.818;8.484;2023-03-21T08:16:41;11.50;99.90
4564;DHT22;2294;51.818;8.484;2023-03-21T08:19:08;11.60;99.90
4564;DHT22;2294;51.818;8.484;2023-03-21T08:21:35;11.60;99.90
4564;DHT22;2294;51.818;8.484;2023-03-21T08:37:32;12.20;99.90
4564;DHT22;2294;51.818;8.484;2023-03-21T08:39:59;12.10;99.90
4564;DHT22;2294;51.818;8.484;2023-03-21T08:42:26;12.00;99.90
4564;DHT22;2294;51.818;8.484;2023-03-21T08:44:53;11.90;99.90
4564;DHT22;2294;51.818;8.484;2023-03-21T08:47:19;11.80;99.90
4564;DHT22;2294;51.818;8.484;2023-03-21T08:49:47;11.80;99.90
4564;DHT22;2294;51.818;8.484;2023-03-21T08:52:13;11.90;99.90
4564;DHT22;2294;51.818;8.484;2023-03-21T08:54:42;11.90;99.90
4564;DHT22;2294;51.818;8.484;2023-03-21T08:57:09;11.90;99.90
4564;DHT22;2294;51.818;8.484;2023-03-21T08:59:36;11.90;99.90
4564;DHT22;2294;51.818;8.484;2023-03-21T09:02:04;12.00;99.90
4564;DHT22;2294;51.818;8.484;2023-03-21T09:04:30;12.20;99.90
4564;DHT22;2294;51.818;8.484;2023-03-21T09:06:57;12.20;99.90
4564;DHT22;2294;51.818;8.484;2023-03-21T09:09:26;12.30;99.90
4564;DHT22;2294;51.818;8.484;2023-03-21T09:11:54;12.40;99.90
4564;DHT22;2294;51.818;8.484;2023-03-21T09:17:43;12.70;99.90
4564;DHT22;2294;51.818;8.484;2023-03-21T09:20:15;12.80;99.90
4564;DHT22;2294;51.818;8.484;2023-03-21T09:22:44;12.90;99.90
4564;DHT22;2294;51.818;8.484;2023-03-21T09:25:11;12.90;99.90
4564;DHT22;2294;51.818;8.484;2023-03-21T09:27:40;12.90;99.90
4564;DHT22;2294;51.818;8.484;2023-03-21T09:30:11;12.80;99.90
4564;DHT22;2294;51.818;8.484;2023-03-21T09:32:38;12.80;99.90
4564;DHT22;2294;51.818;8.484;2023-03-21T09:35:06;12.90;99.90
4564;DHT22;2294;51.818;8.484;2023-03-21T09:37:36;12.90;99.90
4564;DHT22;2294;51.818;8.484;2023-03-21T09:40:13;12.90;99.90
4564;DHT22;2294;51.818;8.484;2023-03-21T09:42:50;13.10;99.90
4564;DHT22;2294;51.818;8.484;2023-03-21T09:45:24;13.20;99.90
4564;DHT22;2294;51.818;8.484;2023-03-21T09:47:53;13.00;99.90
4564;DHT22;2294;51.818;8.484;2023-03-21T09:50:23;12.90;99.90
4564;DHT22;2294;51.818;8.484;2023-03-21T09:52:57;13.00;99.90
4564;DHT22;2294;51.818;8.484;2023-03-21T09:55:26;13.10;99.90
4564;DHT22;2294;51.818;8.484;2023-03-21T09:58:04;13.40;99.90
4564;DHT22;2294;51.818;8.484;2023-03-21T10:00:36;13.40;99.90
4564;DHT22;2294;51.818;8.484;2023-03-21T10:03:07;13.20;99.90
4564;DHT22;2294;51.818;8.484;2023-03-21T10:05:43;13.20;99.90
4564;DHT22;2294;51.818;8.484;2023-03-21T10:08:15;13.10;99.90
4564;DHT22;2294;51.818;8.484;2023-03-21T10:10:46;13.20;99.90
4564;DHT22;2294;51.818;8.484;2023-03-21T10:13:19;13.10;99.90
4564;DHT22;2294;51.818;8.484;2023-03-21T10:15:48;13.30;99.90
4564;DHT22;2294;51.818;8.484;2023-03-21T10:18:21;13.40;99.90
4564;DHT22;2294;51.818;8.484;2023-03-21T10:20:50;13.50;99.90
4564;DHT22;2294;51.818;8.484;2023-03-21T10:23:19;13.50;99.90
4564;DHT22;2294;51.818;8.484;2023-03-21T10:25:49;13.50;99.90
4564;DHT22;2294;51.818;8.484;2023-03-21T10:28:19;13.60;99.90
4564;DHT22;2294;51.818;8.484;2023-03-21T10:30:49;13.50;99.90
4564;DHT22;2294;51.818;8.484;2023-03-21T10:33:18;13.60;99.90
4564;DHT22;2294;51.818;8.484;2023-03-21T10:35:50;13.70;99.90
4564;DHT22;2294;51.818;8.484;2023-03-21T10:38:22;13.80;99.90
4564;DHT22;2294;51.818;8.484;2023-03-21T10:40:50;15.20;99.90
4564;DHT22;2294;51.818;8.484;2023-03-21T10:43:29;14.00;99.90
4564;DHT22;2294;51.818;8.484;2023-03-21T10:45:58;14.00;99.90
4564;DHT22;2294;51.818;8.484;2023-03-21T10:48:34;13.90;99.90
4564;DHT22;2294;51.818;8.484;2023-03-21T10:51:05;13.90;99.90
4564;DHT22;2294;51.818;8.484;2023-03-21T10:53:37;13.90;99.90
4564;DHT22;2294;51.818;8.484;2023-03-21T10:56:07;13.60;99.90
4564;DHT22;2294;51.818;8.484;2023-03-21T10:58:41;13.60;99.90
4564;DHT22;2294;51.818;8.484;2023-03-21T11:01:12;13.50;99.90
4564;DHT22;2294;51.818;8.484;2023-03-21T11:03:42;13.60;99.90
4564;DHT22;2294;51.818;8.484;2023-03-21T11:06:15;13.70;99.90
4564;DHT22;2294;51.818;8.484;2023-03-21T11:08:45;13.70;99.90
4564;DHT22;2294;51.818;8.484;2023-03-21T11:11:19;13.80;99.90
4564;DHT22;2294;51.818;8.484;2023-03-21T11:13:56;13.80;99.90
4564;DHT22;2294;51.818;8.484;2023-03-21T11:16:30;13.80;99.90
4564;DHT22;2294;51.818;8.484;2023-03-21T11:19:00;13.80;99.90
4564;DHT22;2294;51.818;8.484;2023-03-21T11:21:35;13.90;99.90
4564;DHT22;2294;51.818;8.484;2023-03-21T11:24:03;13.80;99.90
4564;DHT22;2294;51.818;8.484;2023-03-21T11:26:33;13.50;99.90
4564;DHT22;2294;51.818;8.484;2023-03-21T11:29:16;13.60;99.90
4564;DHT22;2294;51.818;8.484;2023-03-21T11:31:45;13.70;99.90
4564;DHT22;2294;51.818;8.484;2023-03-21T11:34:25;13.70;99.90
4564;DHT22;2294;51.818;8.484;2023-03-21T11:36:59;13.50;99.90
4564;DHT22;2294;51.818;8.484;2023-03-21T11:39:30;13.60;99.90
4564;DHT22;2294;51.818;8.484;2023-03-21T11:41:58;13.60;99.90
4564;DHT22;2294;51.818;8.484;2023-03-21T11:44:30;13.60;99.90
4564;DHT22;2294;51.818;8.484;2023-03-21T11:46:57;13.50;99.90
4564;DHT22;2294;51.818;8.484;2023-03-21T11:49:25;13.50;99.90
4564;DHT22;2294;51.818;8.484;2023-03-21T11:52:10;13.60;99.90
4564;DHT22;2294;51.818;8.484;2023-03-21T11:54:55;13.60;99.90
4564;DHT22;2294;51.818;8.484;2023-03-21T11:57:31;13.80;99.90
4564;DHT22;2294;51.818;8.484;2023-03-21T12:00:06;13.70;99.90
4564;DHT22;2294;51.818;8.484;2023-03-21T12:02:53;13.90;99.90
4564;DHT22;2294;51.818;8.484;2023-03-21T12:05:26;13.90;99.90
4564;DHT22;2294;51.818;8.484;2023-03-21T12:07:58;13.90;99.90
4564;DHT22;2294;51.818;8.484;2023-03-21T12:10:31;13.90;99.90
4564;DHT22;2294;51.818;8.484;2023-03-21T12:13:17;14.00;99.90
4564;DHT22;2294;51.818;8.484;2023-03-21T12:15:57;13.90;99.90
4564;DHT22;2294;51.818;8.484;2023-03-21T12:18:56;13.90;99.90
4564;DHT22;2294;51.818;8.484;2023-03-21T12:21:32;14.20;99.90
4564;DHT22;2294;51.818;8.484;2023-03-21T12:24:05;14.40;99.90
4564;DHT22;2294;51.818;8.484;2023-03-21T12:26:41;14.50;99.90
4564;DHT22;2294;51.818;8.484;2023-03-21T12:29:31;14.60;99.90
4564;DHT22;2294;51.818;8.484;2023-03-21T12:32:13;14.50;99.90
4564;DHT22;2294;51.818;8.484;2023-03-21T12:34:58;14.50;99.90
4564;DHT22;2294;51.818;8.484;2023-03-21T12:37:33;14.70;99.90
4564;DHT22;2294;51.818;8.484;2023-03-21T12:40:08;14.80;99.90
4564;DHT22;2294;51.818;8.484;2023-03-21T12:42:49;14.70;99.90
4564;DHT22;2294;51.818;8.484;2023-03-21T12:45:24;14.80;99.90
4564;DHT22;2294;51.818;8.484;2023-03-21T12:47:58;14.60;99.90
4564;DHT22;2294;51.818;8.484;2023-03-21T12:50:30;14.80;99.90
4564;DHT22;2294;51.818;8.484;2023-03-21T12:53:07;15.00;99.90
4564;DHT22;2294;51.818;8.484;2023-03-21T12:55:38;14.90;99.90
4564;DHT22;2294;51.818;8.484;2023-03-21T12:58:10;15.00;99.90
4564;DHT22;2294;51.818;8.484;2023-03-21T13:00:45;15.00;99.90
4564;DHT22;2294;51.818;8.484;2023-03-21T13:03:18;15.00;99.90
4564;DHT22;2294;51.818;8.484;2023-03-21T13:05:50;15.10;99.90
4564;DHT22;2294;51.818;8.484;2023-03-21T13:08:24;14.90;99.90
4564;DHT22;2294;51.818;8.484;2023-03-21T13:10:54;14.90;99.90
4564;DHT22;2294;51.818;8.484;2023-03-21T13:13:27;15.00;99.90
4564;DHT22;2294;51.818;8.484;2023-03-21T13:16:03;15.00;99.90
4564;DHT22;2294;51.818;8.484;2023-03-21T13:18:43;15.10;99.90
4564;DHT22;2294;51.818;8.484;2023-03-21T13:21:15;14.90;99.90
4564;DHT22;2294;51.818;8.484;2023-03-21T13:23:57;14.80;99.90
4564;DHT22;2294;51.818;8.484;2023-03-21T13:26:32;14.70;99.90
4564;DHT22;2294;51.818;8.484;2023-03-21T13:28:59;15.00;99.90
4564;DHT22;2294;51.818;8.484;2023-03-21T13:31:26;14.80;99.90
4564;DHT22;2294;51.818;8.484;2023-03-21T13:33:58;13.60;99.90
4564;DHT22;2294;51.818;8.484;2023-03-21T13:36:27;14.80;99.90
4564;DHT22;2294;51.818;8.484;2023-03-21T13:38:59;14.80;99.90
4564;DHT22;2294;51.818;8.484;2023-03-21T13:41:30;14.70;99.90
4564;DHT22;2294;51.818;8.484;2023-03-21T13:44:08;14.80;99.90
4564;DHT22;2294;51.818;8.484;2023-03-21T13:46:43;14.80;99.90
4564;DHT22;2294;51.818;8.484;2023-03-21T13:49:26;14.90;99.90
4564;DHT22;2294;51.818;8.484;2023-03-21T13:51:54;14.90;99.90
4564;DHT22;2294;51.818;8.484;2023-03-21T13:54:44;15.00;99.90
4564;DHT22;2294;51.818;8.484;2023-03-21T13:57:34;15.20;99.90
4564;DHT22;2294;51.818;8.484;2023-03-21T14:00:21;15.20;99.90
4564;DHT22;2294;51.818;8.484;2023-03-21T14:02:54;15.10;99.90
4564;DHT22;2294;51.818;8.484;2023-03-21T14:05:25;15.10;99.90
4564;DHT22;2294;51.818;8.484;2023-03-21T14:07:55;15.00;99.90
4564;DHT22;2294;51.818;8.484;2023-03-21T14:10:27;15.00;99.90
4564;DHT22;2294;51.818;8.484;2023-03-21T14:12:56;15.00;99.90
4564;DHT22;2294;51.818;8.484;2023-03-21T14:15:26;15.00;99.90
4564;DHT22;2294;51.818;8.484;2023-03-21T14:17:57;14.80;99.90
4564;DHT22;2294;51.818;8.484;2023-03-21T14:20:27;14.80;99.90
4564;DHT22;2294;51.818;8.484;2023-03-21T14:22:55;14.50;99.90
4564;DHT22;2294;51.818;8.484;2023-03-21T14:25:23;14.50;99.90
4564;DHT22;2294;51.818;8.484;2023-03-21T14:27:53;14.40;99.90
4564;DHT22;2294;51.818;8.484;2023-03-21T14:30:23;14.20;99.90
4564;DHT22;2294;51.818;8.484;2023-03-21T14:32:53;14.00;99.90
4564;DHT22;2294;51.818;8.484;2023-03-21T14:35:21;13.90;99.90
4564;DHT22;2294;51.818;8.484;2023-03-21T14:37:50;13.80;99.90
4564;DHT22;2294;51.818;8.484;2023-03-21T14:40:20;13.80;99.90
4564;DHT22;2294;51.818;8.484;2023-03-21T14:42:49;13.80;99.90
4564;DHT22;2294;51.818;8.484;2023-03-21T14:45:19;13.70;99.90
4564;DHT22;2294;51.818;8.484;2023-03-21T14:47:57;13.50;99.90
4564;DHT22;2294;51.818;8.484;2023-03-21T14:50:31;13.50;99.90
4564;DHT22;2294;51.818;8.484;2023-03-21T14:53:01;13.50;99.90
4564;DHT22;2294;51.818;8.484;2023-03-21T14:55:28;13.30;99.90
4564;DHT22;2294;51.818;8.484;2023-03-21T14:57:55;13.20;99.90
4564;DHT22;2294;51.818;8.484;2023-03-21T15:00:25;13.10;99.90
4564;DHT22;2294;51.818;8.484;2023-03-21T15:02:53;13.10;99.90
4564;DHT22;2294;51.818;8.484;2023-03-21T15:05:23;13.20;99.90
4564;DHT22;2294;51.818;8.484;2023-03-21T15:07:53;13.00;99.90
4564;DHT22;2294;51.818;8.484;2023-03-21T15:10:24;13.00;99.90
4564;DHT22;2294;51.818;8.484;2023-03-21T15:12:53;13.00;99.90
4564;DHT22;2294;51.818;8.484;2023-03-21T15:15:21;12.90;99.90
4564;DHT22;2294;51.818;8.484;2023-03-21T15:17:49;12.70;99.90
4564;DHT22;2294;51.818;8.484;2023-03-21T15:20:18;12.80;99.90
4564;DHT22;2294;51.818;8.484;2023-03-21T15:22:47;12.80;99.90
4564;DHT22;2294;51.818;8.484;2023-03-21T15:25:19;12.80;99.90
4564;DHT22;2294;51.818;8.484;2023-03-21T15:27:48;12.70;99.90
4564;DHT22;2294;51.818;8.484;2023-03-21T15:30:21;12.70;99.90
4564;DHT22;2294;51.818;8.484;2023-03-21T15:32:48;12.60;99.90
4564;DHT22;2294;51.818;8.484;2023-03-21T15:35:19;12.50;99.90
4564;DHT22;2294;51.818;8.484;2023-03-21T15:37:52;12.40;99.90
4564;DHT22;2294;51.818;8.484;2023-03-21T15:40:22;12.40;99.90
4564;DHT22;2294;51.818;8.484;2023-03-21T15:43:06;12.50;99.90
4564;DHT22;2294;51.818;8.484;2023-03-21T15:45:45;12.40;99.90
4564;DHT22;2294;51.818;8.484;2023-03-21T15:48:13;12.40;99.90
4564;DHT22;2294;51.818;8.484;2023-03-21T15:50:42;12.50;99.90
4564;DHT22;2294;51.818;8.484;2023-03-21T15:53:14;12.50;99.90
4564;DHT22;2294;51.818;8.484;2023-03-21T15:55:43;12.40;99.90
4564;DHT22;2294;51.818;8.484;2023-03-21T15:58:17;12.30;99.90
4564;DHT22;2294;51.818;8.484;2023-03-21T16:00:48;12.30;99.90
4564;DHT22;2294;51.818;8.484;2023-03-21T16:03:18;12.30;99.90
4564;DHT22;2294;51.818;8.484;2023-03-21T16:06:07;12.40;99.90
4564;DHT22;2294;51.818;8.484;2023-03-21T16:08:44;12.30;99.90
4564;DHT22;2294;51.818;8.484;2023-03-21T16:11:25;12.40;99.90
4564;DHT22;2294;51.818;8.484;2023-03-21T16:13:55;12.40;99.90
4564;DHT22;2294;51.818;8.484;2023-03-21T16:16:23;12.40;99.90
4564;DHT22;2294;51.818;8.484;2023-03-21T16:18:53;12.40;99.90
4564;DHT22;2294;51.818;8.484;2023-03-21T16:21:22;12.50;99.90
4564;DHT22;2294;51.818;8.484;2023-03-21T16:23:49;12.50;99.90
4564;DHT22;2294;51.818;8.484;2023-03-21T16:26:18;12.50;99.90
4564;DHT22;2294;51.818;8.484;2023-03-21T16:28:47;12.50;99.90
4564;DHT22;2294;51.818;8.484;2023-03-21T16:31:17;12.50;99.90
4564;DHT22;2294;51.818;8.484;2023-03-21T16:33:45;12.50;99.90
4564;DHT22;2294;51.818;8.484;2023-03-21T16:36:14;12.50;99.90
4564;DHT22;2294;51.818;8.484;2023-03-21T16:38:42;12.40;99.90
4564;DHT22;2294;51.818;8.484;2023-03-21T16:41:10;12.40;99.90
4564;DHT22;2294;51.818;8.484;2023-03-21T16:43:37;12.40;99.90
4564;DHT22;2294;51.818;8.484;2023-03-21T16:46:11;12.40;99.90
4564;DHT22;2294;51.818;8.484;2023-03-21T16:48:39;12.40;99.90
4564;DHT22;2294;51.818;8.484;2023-03-21T16:51:11;12.40;99.90